sensor_id;sensor_type;location;lat;lon;timestamp;P1;durP1;ratioP1;P2;durP2;ratioP2
7605;SDS011;3844;53.360;9.738;2022-10-22T00:00:53;19.63;;;10.52;;
7605;SDS011;3844;53.360;9.738;2022-10-22T00:02:54;20.58;;;10.38;;
7605;SDS011;3844;53.360;9.738;2022-10-22T00:04:55;20.88;;;10.30;;
7605;SDS011;3844;53.360;9.738;2022-10-22T00:06:56;18.83;;;10.07;;
7605;SDS011;3844;53.360;9.738;2022-10-22T00:08:57;19.58;;;9.85;;
7605;SDS011;3844;53.360;9.738;2022-10-22T00:10:57;18.75;;;10.02;;
7605;SDS011;3844;53.360;9.738;2022-10-22T00:12:58;22.58;;;11.02;;
7605;SDS011;3844;53.360;9.738;2022-10-22T00:14:59;18.88;;;9.48;;
7605;SDS011;3844;53.360;9.738;2022-10-22T00:17:00;18.52;;;9.75;;
7605;SDS011;3844;53.360;9.738;2022-10-22T00:19:01;19.52;;;10.00;;
7605;SDS011;3844;53.360;9.738;2022-10-22T00:21:02;21.77;;;9.65;;
7605;SDS011;3844;53.360;9.738;2022-10-22T00:23:03;23.02;;;11.73;;
7605;SDS011;3844;53.360;9.738;2022-10-22T00:25:04;19.42;;;10.68;;
7605;SDS011;3844;53.360;9.738;2022-10-22T00:27:05;19.55;;;9.63;;
7605;SDS011;3844;53.360;9.738;2022-10-22T00:29:07;19.80;;;9.65;;
7605;SDS011;3844;53.360;9.738;2022-10-22T00:31:07;17.52;;;9.45;;
7605;SDS011;3844;53.360;9.738;2022-10-22T00:33:08;20.77;;;10.52;;
7605;SDS011;3844;53.360;9.738;2022-10-22T00:35:09;20.48;;;10.50;;
7605;SDS011;3844;53.360;9.738;2022-10-22T00:37:09;19.95;;;10.52;;
7605;SDS011;3844;53.360;9.738;2022-10-22T00:39:11;22.80;;;11.00;;
7605;SDS011;3844;53.360;9.738;2022-10-22T00:41:12;20.50;;;10.25;;
7605;SDS011;3844;53.360;9.738;2022-10-22T00:43:14;19.55;;;9.73;;
7605;SDS011;3844;53.360;9.738;2022-10-22T00:45:23;20.23;;;10.70;;
7605;SDS011;3844;53.360;9.738;2022-10-22T00:47:30;18.65;;;10.05;;
7605;SDS011;3844;53.360;9.738;2022-10-22T00:49:40;20.15;;;10.48;;
7605;SDS011;3844;53.360;9.738;2022-10-22T00:51:41;19.27;;;10.15;;
7605;SDS011;3844;53.360;9.738;2022-10-22T00:53:46;124.20;;;11.57;;
7605;SDS011;3844;53.360;9.738;2022-10-22T00:55:51;17.02;;;9.25;;
7605;SDS011;3844;53.360;9.738;2022-10-22T00:57:53;22.92;;;12.02;;
7605;SDS011;3844;53.360;9.738;2022-10-22T00:59:55;22.15;;;11.02;;
7605;SDS011;3844;53.360;9.738;2022-10-22T01:01:57;18.98;;;10.00;;
7605;SDS011;3844;53.360;9.738;2022-10-22T01:03:58;19.50;;;9.40;;
7605;SDS011;3844;53.360;9.738;2022-10-22T01:06:00;20.45;;;8.93;;
7605;SDS011;3844;53.360;9.738;2022-10-22T01:08:04;19.08;;;8.68;;
7605;SDS011;3844;53.360;9.738;2022-10-22T01:10:08;17.10;;;8.20;;
7605;SDS011;3844;53.360;9.738;2022-10-22T01:21:57;19.40;;;8.38;;
7605;SDS011;3844;53.360;9.738;2022-10-22T01:29:17;40.03;;;9.02;;
7605;SDS011;3844;53.360;9.738;2022-10-22T01:31:21;32.47;;;8.35;;
7605;SDS011;3844;53.360;9.738;2022-10-22T01:33:23;25.73;;;7.65;;
7605;SDS011;3844;53.360;9.738;2022-10-22T01:35:26;31.65;;;8.80;;
7605;SDS011;3844;53.360;9.738;2022-10-22T01:37:36;27.23;;;8.40;;
7605;SDS011;3844;53.360;9.738;2022-10-22T01:39:42;14.32;;;7.22;;
7605;SDS011;3844;53.360;9.738;2022-10-22T01:41:45;16.15;;;7.85;;
7605;SDS011;3844;53.360;9.738;2022-10-22T01:43:46;16.35;;;8.85;;
7605;SDS011;3844;53.360;9.738;2022-10-22T01:45:49;13.80;;;7.40;;
7605;SDS011;3844;53.360;9.738;2022-10-22T01:47:57;14.10;;;7.35;;
7605;SDS011;3844;53.360;9.738;2022-10-22T01:55:21;19.95;;;9.38;;
7605;SDS011;3844;53.360;9.738;2022-10-22T01:57:42;16.33;;;8.63;;
7605;SDS011;3844;53.360;9.738;2022-10-22T02:00:05;40.38;;;9.00;;
7605;SDS011;3844;53.360;9.738;2022-10-22T02:04:25;17.77;;;8.75;;
7605;SDS011;3844;53.360;9.738;2022-10-22T02:06:34;16.17;;;8.05;;
7605;SDS011;3844;53.360;9.738;2022-10-22T02:08:38;13.18;;;7.28;;
7605;SDS011;3844;53.360;9.738;2022-10-22T02:10:43;23.30;;;7.50;;
7605;SDS011;3844;53.360;9.738;2022-10-22T02:14:47;13.43;;;6.93;;
7605;SDS011;3844;53.360;9.738;2022-10-22T02:16:49;13.55;;;7.30;;
7605;SDS011;3844;53.360;9.738;2022-10-22T02:18:51;16.75;;;7.30;;
7605;SDS011;3844;53.360;9.738;2022-10-22T02:20:53;39.20;;;9.70;;
7605;SDS011;3844;53.360;9.738;2022-10-22T02:22:55;19.42;;;9.10;;
7605;SDS011;3844;53.360;9.738;2022-10-22T02:24:56;18.27;;;8.88;;
7605;SDS011;3844;53.360;9.738;2022-10-22T02:27:01;19.27;;;9.45;;
7605;SDS011;3844;53.360;9.738;2022-10-22T02:29:25;21.42;;;9.65;;
7605;SDS011;3844;53.360;9.738;2022-10-22T02:31:30;15.85;;;7.82;;
7605;SDS011;3844;53.360;9.738;2022-10-22T02:33:34;28.77;;;7.65;;
7605;SDS011;3844;53.360;9.738;2022-10-22T02:35:38;21.80;;;9.35;;
7605;SDS011;3844;53.360;9.738;2022-10-22T02:37:40;19.83;;;10.98;;
7605;SDS011;3844;53.360;9.738;2022-10-22T02:39:43;18.60;;;8.90;;
7605;SDS011;3844;53.360;9.738;2022-10-22T02:41:44;20.38;;;8.57;;
7605;SDS011;3844;53.360;9.738;2022-10-22T02:43:50;15.88;;;8.40;;
7605;SDS011;3844;53.360;9.738;2022-10-22T02:45:53;19.58;;;7.35;;
7605;SDS011;3844;53.360;9.738;2022-10-22T02:47:54;15.43;;;7.85;;
7605;SDS011;3844;53.360;9.738;2022-10-22T02:49:55;14.68;;;7.03;;
7605;SDS011;3844;53.360;9.738;2022-10-22T02:51:55;16.13;;;6.95;;
7605;SDS011;3844;53.360;9.738;2022-10-22T02:53:56;13.60;;;7.00;;
7605;SDS011;3844;53.360;9.738;2022-10-22T02:55:57;14.07;;;6.90;;
7605;SDS011;3844;53.360;9.738;2022-10-22T02:57:58;10.63;;;6.22;;
7605;SDS011;3844;53.360;9.738;2022-10-22T02:59:59;11.65;;;7.18;;
7605;SDS011;3844;53.360;9.738;2022-10-22T03:02:00;18.67;;;10.25;;
7605;SDS011;3844;53.360;9.738;2022-10-22T03:04:01;21.80;;;10.93;;
7605;SDS011;3844;53.360;9.738;2022-10-22T03:06:02;17.05;;;8.88;;
7605;SDS011;3844;53.360;9.738;2022-10-22T03:08:03;23.98;;;10.07;;
7605;SDS011;3844;53.360;9.738;2022-10-22T03:10:04;15.13;;;8.23;;
7605;SDS011;3844;53.360;9.738;2022-10-22T03:12:05;23.13;;;8.90;;
7605;SDS011;3844;53.360;9.738;2022-10-22T03:14:07;24.27;;;8.35;;
7605;SDS011;3844;53.360;9.738;2022-10-22T03:16:08;20.23;;;8.68;;
7605;SDS011;3844;53.360;9.738;2022-10-22T03:18:09;18.58;;;8.50;;
7605;SDS011;3844;53.360;9.738;2022-10-22T03:20:10;16.33;;;8.63;;
7605;SDS011;3844;53.360;9.738;2022-10-22T03:22:31;22.45;;;8.90;;
7605;SDS011;3844;53.360;9.738;2022-10-22T03:24:35;20.30;;;9.70;;
7605;SDS011;3844;53.360;9.738;2022-10-22T03:26:39;12.65;;;7.85;;
7605;SDS011;3844;53.360;9.738;2022-10-22T03:28:41;16.02;;;8.25;;
7605;SDS011;3844;53.360;9.738;2022-10-22T03:30:42;15.80;;;8.20;;
7605;SDS011;3844;53.360;9.738;2022-10-22T03:32:43;24.52;;;12.07;;
7605;SDS011;3844;53.360;9.738;2022-10-22T03:34:44;19.25;;;10.55;;
7605;SDS011;3844;53.360;9.738;2022-10-22T03:36:44;23.40;;;11.20;;
7605;SDS011;3844;53.360;9.738;2022-10-22T03:38:46;28.90;;;12.20;;
7605;SDS011;3844;53.360;9.738;2022-10-22T03:40:47;24.88;;;11.63;;
7605;SDS011;3844;53.360;9.738;2022-10-22T03:42:48;22.63;;;10.65;;
7605;SDS011;3844;53.360;9.738;2022-10-22T03:44:49;21.48;;;10.40;;
7605;SDS011;3844;53.360;9.738;2022-10-22T03:46:50;18.85;;;10.48;;
7605;SDS011;3844;53.360;9.738;2022-10-22T03:48:51;32.17;;;14.50;;
7605;SDS011;3844;53.360;9.738;2022-10-22T03:50:51;24.50;;;11.70;;
7605;SDS011;3844;53.360;9.738;2022-10-22T03:52:52;34.33;;;15.32;;
7605;SDS011;3844;53.360;9.738;2022-10-22T03:54:53;30.92;;;14.90;;
7605;SDS011;3844;53.360;9.738;2022-10-22T03:56:54;30.77;;;14.02;;
7605;SDS011;3844;53.360;9.738;2022-10-22T03:58:55;27.77;;;13.48;;
7605;SDS011;3844;53.360;9.738;2022-10-22T04:01:02;25.23;;;12.30;;
7605;SDS011;3844;53.360;9.738;2022-10-22T04:03:07;24.33;;;12.65;;
7605;SDS011;3844;53.360;9.738;2022-10-22T04:05:08;24.27;;;12.60;;
7605;SDS011;3844;53.360;9.738;2022-10-22T04:07:08;29.15;;;13.38;;
7605;SDS011;3844;53.360;9.738;2022-10-22T04:09:09;26.90;;;13.52;;
7605;SDS011;3844;53.360;9.738;2022-10-22T04:11:10;29.50;;;14.45;;
7605;SDS011;3844;53.360;9.738;2022-10-22T04:13:12;29.58;;;14.32;;
7605;SDS011;3844;53.360;9.738;2022-10-22T04:15:13;28.00;;;14.32;;
7605;SDS011;3844;53.360;9.738;2022-10-22T04:17:14;24.90;;;12.95;;
7605;SDS011;3844;53.360;9.738;2022-10-22T04:19:15;22.75;;;12.18;;
7605;SDS011;3844;53.360;9.738;2022-10-22T04:21:17;26.20;;;12.98;;
7605;SDS011;3844;53.360;9.738;2022-10-22T04:23:18;29.67;;;14.63;;
7605;SDS011;3844;53.360;9.738;2022-10-22T04:25:19;35.72;;;16.80;;
7605;SDS011;3844;53.360;9.738;2022-10-22T04:27:20;30.17;;;14.70;;
7605;SDS011;3844;53.360;9.738;2022-10-22T04:29:21;34.50;;;15.90;;
7605;SDS011;3844;53.360;9.738;2022-10-22T04:31:23;30.85;;;14.98;;
7605;SDS011;3844;53.360;9.738;2022-10-22T04:33:25;38.58;;;16.05;;
7605;SDS011;3844;53.360;9.738;2022-10-22T04:35:26;38.22;;;15.88;;
7605;SDS011;3844;53.360;9.738;2022-10-22T04:37:26;29.17;;;14.10;;
7605;SDS011;3844;53.360;9.738;2022-10-22T04:39:27;36.08;;;16.30;;
7605;SDS011;3844;53.360;9.738;2022-10-22T04:41:29;30.25;;;15.15;;
7605;SDS011;3844;53.360;9.738;2022-10-22T04:43:32;28.75;;;14.68;;
7605;SDS011;3844;53.360;9.738;2022-10-22T04:45:33;32.63;;;15.32;;
7605;SDS011;3844;53.360;9.738;2022-10-22T04:47:34;30.98;;;15.43;;
7605;SDS011;3844;53.360;9.738;2022-10-22T04:49:35;28.17;;;14.40;;
7605;SDS011;3844;53.360;9.738;2022-10-22T04:51:36;29.02;;;14.57;;
7605;SDS011;3844;53.360;9.738;2022-10-22T04:53:36;26.92;;;13.25;;
7605;SDS011;3844;53.360;9.738;2022-10-22T04:55:39;29.77;;;13.98;;
7605;SDS011;3844;53.360;9.738;2022-10-22T04:57:40;30.73;;;13.55;;
7605;SDS011;3844;53.360;9.738;2022-10-22T04:59:40;30.17;;;13.38;;
7605;SDS011;3844;53.360;9.738;2022-10-22T05:01:42;26.67;;;13.20;;
7605;SDS011;3844;53.360;9.738;2022-10-22T05:03:43;27.63;;;13.18;;
7605;SDS011;3844;53.360;9.738;2022-10-22T05:05:45;37.88;;;14.35;;
7605;SDS011;3844;53.360;9.738;2022-10-22T05:07:46;29.48;;;14.10;;
7605;SDS011;3844;53.360;9.738;2022-10-22T05:09:46;50.85;;;14.32;;
7605;SDS011;3844;53.360;9.738;2022-10-22T05:11:48;26.55;;;13.48;;
7605;SDS011;3844;53.360;9.738;2022-10-22T05:13:50;27.58;;;13.20;;
7605;SDS011;3844;53.360;9.738;2022-10-22T05:15:51;36.65;;;14.18;;
7605;SDS011;3844;53.360;9.738;2022-10-22T05:17:51;25.55;;;12.80;;
7605;SDS011;3844;53.360;9.738;2022-10-22T05:19:52;26.38;;;12.43;;
7605;SDS011;3844;53.360;9.738;2022-10-22T05:21:53;26.65;;;12.65;;
7605;SDS011;3844;53.360;9.738;2022-10-22T05:23:56;56.92;;;13.65;;
7605;SDS011;3844;53.360;9.738;2022-10-22T05:26:05;30.55;;;14.52;;
7605;SDS011;3844;53.360;9.738;2022-10-22T05:28:07;28.92;;;14.93;;
7605;SDS011;3844;53.360;9.738;2022-10-22T05:30:08;26.60;;;14.35;;
7605;SDS011;3844;53.360;9.738;2022-10-22T05:32:08;27.45;;;13.90;;
7605;SDS011;3844;53.360;9.738;2022-10-22T05:34:12;24.55;;;13.40;;
7605;SDS011;3844;53.360;9.738;2022-10-22T05:36:14;24.52;;;13.13;;
7605;SDS011;3844;53.360;9.738;2022-10-22T05:38:18;29.33;;;13.45;;
7605;SDS011;3844;53.360;9.738;2022-10-22T05:40:18;30.33;;;13.82;;
7605;SDS011;3844;53.360;9.738;2022-10-22T05:42:19;27.15;;;13.48;;
7605;SDS011;3844;53.360;9.738;2022-10-22T05:44:20;25.23;;;12.85;;
7605;SDS011;3844;53.360;9.738;2022-10-22T05:46:21;25.58;;;13.82;;
7605;SDS011;3844;53.360;9.738;2022-10-22T05:48:23;27.05;;;14.00;;
7605;SDS011;3844;53.360;9.738;2022-10-22T05:50:24;24.52;;;12.55;;
7605;SDS011;3844;53.360;9.738;2022-10-22T05:52:25;26.00;;;12.90;;
7605;SDS011;3844;53.360;9.738;2022-10-22T05:54:26;24.05;;;12.35;;
7605;SDS011;3844;53.360;9.738;2022-10-22T05:56:27;22.38;;;11.65;;
7605;SDS011;3844;53.360;9.738;2022-10-22T05:58:29;21.67;;;11.83;;
7605;SDS011;3844;53.360;9.738;2022-10-22T06:00:30;19.27;;;10.63;;
7605;SDS011;3844;53.360;9.738;2022-10-22T06:02:33;21.17;;;11.02;;
7605;SDS011;3844;53.360;9.738;2022-10-22T06:04:34;25.30;;;12.00;;
7605;SDS011;3844;53.360;9.738;2022-10-22T06:06:47;23.88;;;11.88;;
7605;SDS011;3844;53.360;9.738;2022-10-22T06:08:50;23.05;;;11.43;;
7605;SDS011;3844;53.360;9.738;2022-10-22T06:10:53;23.98;;;12.02;;
7605;SDS011;3844;53.360;9.738;2022-10-22T06:12:54;24.42;;;12.07;;
7605;SDS011;3844;53.360;9.738;2022-10-22T06:14:54;25.33;;;12.73;;
7605;SDS011;3844;53.360;9.738;2022-10-22T06:16:57;26.98;;;12.82;;
7605;SDS011;3844;53.360;9.738;2022-10-22T06:21:03;30.03;;;14.30;;
7605;SDS011;3844;53.360;9.738;2022-10-22T06:23:08;29.27;;;13.80;;
7605;SDS011;3844;53.360;9.738;2022-10-22T06:25:09;29.02;;;13.88;;
7605;SDS011;3844;53.360;9.738;2022-10-22T06:27:09;32.05;;;15.77;;
7605;SDS011;3844;53.360;9.738;2022-10-22T06:29:10;31.40;;;13.90;;
7605;SDS011;3844;53.360;9.738;2022-10-22T06:31:11;26.90;;;12.98;;
7605;SDS011;3844;53.360;9.738;2022-10-22T06:33:12;22.48;;;12.05;;
7605;SDS011;3844;53.360;9.738;2022-10-22T06:35:13;26.02;;;13.43;;
7605;SDS011;3844;53.360;9.738;2022-10-22T06:37:13;23.45;;;11.73;;
7605;SDS011;3844;53.360;9.738;2022-10-22T06:39:15;25.65;;;12.60;;
7605;SDS011;3844;53.360;9.738;2022-10-22T06:41:16;30.58;;;15.23;;
7605;SDS011;3844;53.360;9.738;2022-10-22T06:43:17;33.65;;;15.80;;
7605;SDS011;3844;53.360;9.738;2022-10-22T06:45:18;37.03;;;17.08;;
7605;SDS011;3844;53.360;9.738;2022-10-22T06:47:19;34.13;;;16.25;;
7605;SDS011;3844;53.360;9.738;2022-10-22T06:49:20;27.60;;;13.70;;
7605;SDS011;3844;53.360;9.738;2022-10-22T06:51:21;26.30;;;13.45;;
7605;SDS011;3844;53.360;9.738;2022-10-22T06:53:21;24.23;;;11.88;;
7605;SDS011;3844;53.360;9.738;2022-10-22T06:55:22;27.23;;;13.18;;
7605;SDS011;3844;53.360;9.738;2022-10-22T06:57:23;16.90;;;10.25;;
7605;SDS011;3844;53.360;9.738;2022-10-22T06:59:24;20.77;;;11.02;;
7605;SDS011;3844;53.360;9.738;2022-10-22T07:01:26;21.42;;;10.60;;
7605;SDS011;3844;53.360;9.738;2022-10-22T07:05:29;26.48;;;13.95;;
7605;SDS011;3844;53.360;9.738;2022-10-22T07:07:32;24.02;;;12.60;;
7605;SDS011;3844;53.360;9.738;2022-10-22T07:09:33;25.38;;;12.98;;
7605;SDS011;3844;53.360;9.738;2022-10-22T07:11:38;19.02;;;10.23;;
7605;SDS011;3844;53.360;9.738;2022-10-22T07:13:40;22.58;;;11.57;;
7605;SDS011;3844;53.360;9.738;2022-10-22T07:15:41;22.05;;;12.05;;
7605;SDS011;3844;53.360;9.738;2022-10-22T07:17:42;21.10;;;10.80;;
7605;SDS011;3844;53.360;9.738;2022-10-22T07:19:43;19.60;;;10.52;;
7605;SDS011;3844;53.360;9.738;2022-10-22T07:21:43;18.98;;;9.75;;
7605;SDS011;3844;53.360;9.738;2022-10-22T07:23:44;17.23;;;9.55;;
7605;SDS011;3844;53.360;9.738;2022-10-22T07:25:45;14.32;;;8.43;;
7605;SDS011;3844;53.360;9.738;2022-10-22T07:27:46;17.92;;;9.10;;
7605;SDS011;3844;53.360;9.738;2022-10-22T07:29:47;19.92;;;10.00;;
7605;SDS011;3844;53.360;9.738;2022-10-22T07:31:47;19.25;;;11.02;;
7605;SDS011;3844;53.360;9.738;2022-10-22T07:33:48;17.55;;;9.82;;
7605;SDS011;3844;53.360;9.738;2022-10-22T07:35:49;18.10;;;9.77;;
7605;SDS011;3844;53.360;9.738;2022-10-22T07:37:50;16.27;;;8.90;;
7605;SDS011;3844;53.360;9.738;2022-10-22T07:39:50;15.77;;;8.93;;
7605;SDS011;3844;53.360;9.738;2022-10-22T07:41:51;19.17;;;11.50;;
7605;SDS011;3844;53.360;9.738;2022-10-22T07:43:52;19.40;;;10.70;;
7605;SDS011;3844;53.360;9.738;2022-10-22T07:45:53;22.13;;;12.43;;
7605;SDS011;3844;53.360;9.738;2022-10-22T07:47:58;22.90;;;12.32;;
7605;SDS011;3844;53.360;9.738;2022-10-22T07:50:00;23.95;;;13.13;;
7605;SDS011;3844;53.360;9.738;2022-10-22T07:52:01;22.75;;;13.02;;
7605;SDS011;3844;53.360;9.738;2022-10-22T07:54:02;25.92;;;15.00;;
7605;SDS011;3844;53.360;9.738;2022-10-22T07:56:03;34.55;;;16.35;;
7605;SDS011;3844;53.360;9.738;2022-10-22T07:58:05;36.63;;;17.90;;
7605;SDS011;3844;53.360;9.738;2022-10-22T08:00:06;42.15;;;19.70;;
7605;SDS011;3844;53.360;9.738;2022-10-22T08:02:09;36.70;;;18.75;;
7605;SDS011;3844;53.360;9.738;2022-10-22T08:04:10;39.53;;;19.33;;
7605;SDS011;3844;53.360;9.738;2022-10-22T08:06:11;34.03;;;18.00;;
7605;SDS011;3844;53.360;9.738;2022-10-22T08:08:15;30.35;;;15.27;;
7605;SDS011;3844;53.360;9.738;2022-10-22T08:10:15;29.23;;;16.45;;
7605;SDS011;3844;53.360;9.738;2022-10-22T08:12:16;31.98;;;16.67;;
7605;SDS011;3844;53.360;9.738;2022-10-22T08:14:17;32.28;;;17.02;;
7605;SDS011;3844;53.360;9.738;2022-10-22T08:16:18;26.92;;;15.80;;
7605;SDS011;3844;53.360;9.738;2022-10-22T08:18:19;28.60;;;15.15;;
7605;SDS011;3844;53.360;9.738;2022-10-22T08:20:20;28.63;;;16.00;;
7605;SDS011;3844;53.360;9.738;2022-10-22T08:22:21;29.35;;;15.02;;
7605;SDS011;3844;53.360;9.738;2022-10-22T08:24:21;25.98;;;14.45;;
7605;SDS011;3844;53.360;9.738;2022-10-22T08:26:22;22.85;;;13.00;;
7605;SDS011;3844;53.360;9.738;2022-10-22T08:28:23;24.60;;;14.07;;
7605;SDS011;3844;53.360;9.738;2022-10-22T08:30:24;26.27;;;14.75;;
7605;SDS011;3844;53.360;9.738;2022-10-22T08:32:26;25.30;;;13.87;;
7605;SDS011;3844;53.360;9.738;2022-10-22T08:34:28;19.80;;;11.90;;
7605;SDS011;3844;53.360;9.738;2022-10-22T08:36:29;22.40;;;12.48;;
7605;SDS011;3844;53.360;9.738;2022-10-22T08:38:30;22.98;;;13.05;;
7605;SDS011;3844;53.360;9.738;2022-10-22T08:40:31;23.05;;;12.35;;
7605;SDS011;3844;53.360;9.738;2022-10-22T08:42:43;24.27;;;13.40;;
7605;SDS011;3844;53.360;9.738;2022-10-22T08:47:16;20.27;;;11.88;;
7605;SDS011;3844;53.360;9.738;2022-10-22T08:49:41;21.23;;;11.20;;
7605;SDS011;3844;53.360;9.738;2022-10-22T08:51:42;17.25;;;9.50;;
7605;SDS011;3844;53.360;9.738;2022-10-22T08:56:02;14.93;;;7.68;;
7605;SDS011;3844;53.360;9.738;2022-10-22T08:58:10;13.13;;;8.05;;
7605;SDS011;3844;53.360;9.738;2022-10-22T09:04:55;11.18;;;5.50;;
7605;SDS011;3844;53.360;9.738;2022-10-22T09:07:10;13.95;;;6.13;;
7605;SDS011;3844;53.360;9.738;2022-10-22T09:09:11;11.55;;;6.38;;
7605;SDS011;3844;53.360;9.738;2022-10-22T09:11:21;12.75;;;6.10;;
7605;SDS011;3844;53.360;9.738;2022-10-22T09:13:23;9.40;;;5.40;;
7605;SDS011;3844;53.360;9.738;2022-10-22T09:15:23;10.90;;;4.95;;
7605;SDS011;3844;53.360;9.738;2022-10-22T09:19:48;9.20;;;4.88;;
7605;SDS011;3844;53.360;9.738;2022-10-22T09:24:10;9.38;;;5.00;;
7605;SDS011;3844;53.360;9.738;2022-10-22T09:26:26;10.57;;;4.28;;
7605;SDS011;3844;53.360;9.738;2022-10-22T09:28:26;11.13;;;4.97;;
7605;SDS011;3844;53.360;9.738;2022-10-22T09:30:28;10.30;;;4.38;;
7605;SDS011;3844;53.360;9.738;2022-10-22T09:32:32;9.57;;;4.50;;
7605;SDS011;3844;53.360;9.738;2022-10-22T09:34:33;10.45;;;3.97;;
7605;SDS011;3844;53.360;9.738;2022-10-22T09:36:34;11.15;;;3.92;;
7605;SDS011;3844;53.360;9.738;2022-10-22T09:38:41;10.27;;;4.25;;
7605;SDS011;3844;53.360;9.738;2022-10-22T09:40:48;9.73;;;4.20;;
7605;SDS011;3844;53.360;9.738;2022-10-22T09:42:50;8.05;;;3.97;;
7605;SDS011;3844;53.360;9.738;2022-10-22T09:44:55;10.80;;;4.07;;
7605;SDS011;3844;53.360;9.738;2022-10-22T09:46:58;8.68;;;4.15;;
7605;SDS011;3844;53.360;9.738;2022-10-22T09:49:17;7.90;;;3.60;;
7605;SDS011;3844;53.360;9.738;2022-10-22T09:51:24;13.45;;;4.72;;
7605;SDS011;3844;53.360;9.738;2022-10-22T09:53:36;9.77;;;4.45;;
7605;SDS011;3844;53.360;9.738;2022-10-22T09:55:41;11.10;;;3.78;;
7605;SDS011;3844;53.360;9.738;2022-10-22T09:57:42;10.13;;;3.80;;
7605;SDS011;3844;53.360;9.738;2022-10-22T09:59:46;8.02;;;3.13;;
7605;SDS011;3844;53.360;9.738;2022-10-22T10:01:54;9.32;;;3.50;;
7605;SDS011;3844;53.360;9.738;2022-10-22T10:04:07;9.82;;;3.00;;
7605;SDS011;3844;53.360;9.738;2022-10-22T10:06:15;9.40;;;3.17;;
7605;SDS011;3844;53.360;9.738;2022-10-22T10:08:17;8.25;;;2.70;;
7605;SDS011;3844;53.360;9.738;2022-10-22T10:10:25;8.50;;;2.78;;
7605;SDS011;3844;53.360;9.738;2022-10-22T10:16:56;9.82;;;2.90;;
7605;SDS011;3844;53.360;9.738;2022-10-22T10:21:46;10.40;;;2.83;;
7605;SDS011;3844;53.360;9.738;2022-10-22T10:31:02;8.32;;;2.97;;
7605;SDS011;3844;53.360;9.738;2022-10-22T10:33:23;9.65;;;2.95;;
7605;SDS011;3844;53.360;9.738;2022-10-22T10:38:06;7.72;;;2.80;;
7605;SDS011;3844;53.360;9.738;2022-10-22T10:47:25;6.88;;;2.45;;
7605;SDS011;3844;53.360;9.738;2022-10-22T10:49:33;8.82;;;2.30;;
7605;SDS011;3844;53.360;9.738;2022-10-22T10:51:44;8.55;;;2.53;;
7605;SDS011;3844;53.360;9.738;2022-10-22T10:56:20;8.23;;;1.80;;
7605;SDS011;3844;53.360;9.738;2022-10-22T10:58:38;8.25;;;2.13;;
7605;SDS011;3844;53.360;9.738;2022-10-22T11:00:44;8.35;;;2.25;;
7605;SDS011;3844;53.360;9.738;2022-10-22T11:05:35;9.80;;;2.40;;
7605;SDS011;3844;53.360;9.738;2022-10-22T11:07:59;6.40;;;2.10;;
7605;SDS011;3844;53.360;9.738;2022-10-22T11:12:29;8.70;;;2.33;;
7605;SDS011;3844;53.360;9.738;2022-10-22T11:14:40;8.52;;;2.58;;
7605;SDS011;3844;53.360;9.738;2022-10-22T11:16:50;7.35;;;2.65;;
7605;SDS011;3844;53.360;9.738;2022-10-22T11:19:03;6.78;;;2.10;;
7605;SDS011;3844;53.360;9.738;2022-10-22T11:25:33;5.97;;;2.10;;
7605;SDS011;3844;53.360;9.738;2022-10-22T11:27:46;8.43;;;2.28;;
7605;SDS011;3844;53.360;9.738;2022-10-22T11:29:56;6.00;;;1.90;;
7605;SDS011;3844;53.360;9.738;2022-10-22T11:32:16;7.85;;;1.88;;
7605;SDS011;3844;53.360;9.738;2022-10-22T11:36:35;8.70;;;2.20;;
7605;SDS011;3844;53.360;9.738;2022-10-22T11:38:37;8.25;;;2.17;;
7605;SDS011;3844;53.360;9.738;2022-10-22T11:40:42;10.35;;;1.90;;
7605;SDS011;3844;53.360;9.738;2022-10-22T11:42:57;8.98;;;2.65;;
7605;SDS011;3844;53.360;9.738;2022-10-22T11:45:25;7.47;;;2.05;;
7605;SDS011;3844;53.360;9.738;2022-10-22T11:56:41;8.80;;;2.50;;
7605;SDS011;3844;53.360;9.738;2022-10-22T11:58:42;9.35;;;2.40;;
7605;SDS011;3844;53.360;9.738;2022-10-22T12:00:47;7.65;;;2.28;;
7605;SDS011;3844;53.360;9.738;2022-10-22T12:02:54;9.30;;;2.30;;
7605;SDS011;3844;53.360;9.738;2022-10-22T12:09:46;8.77;;;2.40;;
7605;SDS011;3844;53.360;9.738;2022-10-22T12:11:51;7.10;;;2.20;;
7605;SDS011;3844;53.360;9.738;2022-10-22T12:16:28;8.95;;;2.15;;
7605;SDS011;3844;53.360;9.738;2022-10-22T12:18:39;8.65;;;2.20;;
7605;SDS011;3844;53.360;9.738;2022-10-22T12:20:41;8.23;;;2.53;;
7605;SDS011;3844;53.360;9.738;2022-10-22T12:22:42;6.90;;;1.92;;
7605;SDS011;3844;53.360;9.738;2022-10-22T12:24:44;10.45;;;2.20;;
7605;SDS011;3844;53.360;9.738;2022-10-22T12:26:48;7.32;;;1.85;;
7605;SDS011;3844;53.360;9.738;2022-10-22T12:28:55;11.93;;;2.70;;
7605;SDS011;3844;53.360;9.738;2022-10-22T12:31:00;8.68;;;2.17;;
7605;SDS011;3844;53.360;9.738;2022-10-22T12:33:01;6.88;;;2.00;;
7605;SDS011;3844;53.360;9.738;2022-10-22T12:35:05;7.82;;;2.15;;
7605;SDS011;3844;53.360;9.738;2022-10-22T12:37:09;9.55;;;2.42;;
7605;SDS011;3844;53.360;9.738;2022-10-22T12:39:11;10.02;;;2.50;;
7605;SDS011;3844;53.360;9.738;2022-10-22T12:41:14;9.15;;;2.30;;
7605;SDS011;3844;53.360;9.738;2022-10-22T12:43:16;9.73;;;2.20;;
7605;SDS011;3844;53.360;9.738;2022-10-22T12:47:19;8.23;;;2.20;;
7605;SDS011;3844;53.360;9.738;2022-10-22T12:49:20;12.63;;;2.35;;
7605;SDS011;3844;53.360;9.738;2022-10-22T12:51:22;9.73;;;2.10;;
7605;SDS011;3844;53.360;9.738;2022-10-22T12:53:27;8.02;;;1.90;;
7605;SDS011;3844;53.360;9.738;2022-10-22T12:55:34;7.80;;;1.92;;
7605;SDS011;3844;53.360;9.738;2022-10-22T12:57:35;9.35;;;2.25;;
7605;SDS011;3844;53.360;9.738;2022-10-22T12:59:37;9.18;;;2.25;;
7605;SDS011;3844;53.360;9.738;2022-10-22T13:01:40;9.75;;;2.10;;
7605;SDS011;3844;53.360;9.738;2022-10-22T13:03:43;11.07;;;2.67;;
7605;SDS011;3844;53.360;9.738;2022-10-22T13:05:46;10.45;;;2.05;;
7605;SDS011;3844;53.360;9.738;2022-10-22T13:07:49;8.63;;;2.10;;
7605;SDS011;3844;53.360;9.738;2022-10-22T13:12:02;9.52;;;2.17;;
7605;SDS011;3844;53.360;9.738;2022-10-22T13:14:04;10.00;;;2.22;;
7605;SDS011;3844;53.360;9.738;2022-10-22T13:16:36;7.97;;;2.00;;
7605;SDS011;3844;53.360;9.738;2022-10-22T13:18:39;7.15;;;2.00;;
7605;SDS011;3844;53.360;9.738;2022-10-22T13:25:18;11.27;;;2.10;;
7605;SDS011;3844;53.360;9.738;2022-10-22T13:27:22;11.52;;;2.22;;
7605;SDS011;3844;53.360;9.738;2022-10-22T13:29:23;9.50;;;2.30;;
7605;SDS011;3844;53.360;9.738;2022-10-22T13:31:25;8.65;;;2.15;;
7605;SDS011;3844;53.360;9.738;2022-10-22T13:33:40;8.93;;;2.05;;
7605;SDS011;3844;53.360;9.738;2022-10-22T13:35:44;6.97;;;1.90;;
7605;SDS011;3844;53.360;9.738;2022-10-22T13:37:44;8.35;;;1.95;;
7605;SDS011;3844;53.360;9.738;2022-10-22T13:39:45;12.73;;;2.35;;
7605;SDS011;3844;53.360;9.738;2022-10-22T13:41:46;13.27;;;2.30;;
7605;SDS011;3844;53.360;9.738;2022-10-22T13:45:54;9.35;;;2.20;;
7605;SDS011;3844;53.360;9.738;2022-10-22T13:47:57;10.77;;;2.30;;
7605;SDS011;3844;53.360;9.738;2022-10-22T13:50:00;12.05;;;2.30;;
7605;SDS011;3844;53.360;9.738;2022-10-22T13:52:03;15.05;;;6.65;;
7605;SDS011;3844;53.360;9.738;2022-10-22T13:54:05;11.50;;;2.45;;
7605;SDS011;3844;53.360;9.738;2022-10-22T13:56:14;9.60;;;2.10;;
7605;SDS011;3844;53.360;9.738;2022-10-22T13:58:17;15.32;;;2.55;;
7605;SDS011;3844;53.360;9.738;2022-10-22T14:00:20;10.85;;;2.30;;
7605;SDS011;3844;53.360;9.738;2022-10-22T14:02:21;12.80;;;2.65;;
7605;SDS011;3844;53.360;9.738;2022-10-22T14:04:23;15.13;;;2.50;;
7605;SDS011;3844;53.360;9.738;2022-10-22T14:06:25;12.80;;;3.00;;
7605;SDS011;3844;53.360;9.738;2022-10-22T14:10:29;10.10;;;2.60;;
7605;SDS011;3844;53.360;9.738;2022-10-22T14:12:29;11.57;;;2.50;;
7605;SDS011;3844;53.360;9.738;2022-10-22T14:14:30;10.50;;;2.55;;
7605;SDS011;3844;53.360;9.738;2022-10-22T14:16:31;10.93;;;2.30;;
7605;SDS011;3844;53.360;9.738;2022-10-22T14:18:33;9.40;;;2.15;;
7605;SDS011;3844;53.360;9.738;2022-10-22T14:20:35;13.27;;;2.67;;
7605;SDS011;3844;53.360;9.738;2022-10-22T14:22:39;10.43;;;2.60;;